Time;durP1;ratioP1;P1;durP2;ratioP2;P2;SDS_P1;SDS_P2;PMS_P1;PMS_P2;Temp;Humidity;BMP_temperature;BMP_pressure;BME280_temperature;BME280_humidity;BME280_pressure;Samples;Min_cycle;Max_cycle;Signal;HPM_P1;HPM_P2
2023/04/07 00:00:34;;;;;;;;;;;;;;;4.98;100.00;100596.41;5014635;28;19914;-77
2023/04/07 00:03:01;;;;;;;;;;;;;;;4.88;100.00;100587.75;5013291;28;20291;-78
2023/04/07 00:05:26;;;;;;;;;;;;;;;4.83;100.00;100587.50;5013288;28;20358;-77
2023/04/07 00:07:51;;;;;;;;;;;;;;;4.82;100.00;100591.56;5014710;28;19925;-77
2023/04/07 00:10:16;;;;;;;;;;;;;;;4.82;100.00;100583.88;5014454;28;20032;-77
2023/04/07 00:12:42;;;;;;;;;;;;;;;4.81;100.00;100582.28;5014401;28;19940;-76
2023/04/07 00:15:07;;;;;;;;;;;;;;;4.75;100.00;100583.28;5016562;28;19913;-76
2023/04/07 00:17:33;;;;;;;;;;;;;;;4.73;100.00;100580.91;5016302;28;20263;-77
2023/04/07 00:19:58;;;;;;;;;;;;;;;4.73;100.00;100580.09;5016697;28;20435;-78
2023/04/07 00:22:23;;;;;;;;;;;;;;;4.74;100.00;100578.88;5016356;28;19914;-78
2023/04/07 00:24:48;;;;;;;;;;;;;;;4.76;100.00;100579.22;5015469;28;19914;-77
2023/04/07 00:27:14;;;;;;;;;;;;;;;4.76;100.00;100568.66;5016309;28;19917;-78
2023/04/07 00:29:39;;;;;;;;;;;;;;;4.80;100.00;100574.25;5015068;28;20233;-77
2023/04/07 00:32:05;;;;;;;;;;;;;;;4.80;100.00;100563.72;5016398;28;19959;-74
2023/04/07 00:34:30;;;;;;;;;;;;;;;4.77;100.00;100564.59;5016335;28;20336;-77
2023/04/07 00:36:55;;;;;;;;;;;;;;;4.73;100.00;100561.09;5015923;28;19913;-76
2023/04/07 00:39:21;;;;;;;;;;;;;;;4.67;100.00;100554.38;5015852;28;19967;-78
2023/04/07 00:41:46;;;;;;;;;;;;;;;4.68;100.00;100555.97;5015863;28;19913;-77
2023/04/07 00:44:12;;;;;;;;;;;;;;;4.73;100.00;100555.41;5028064;28;19964;-76
2023/04/07 00:46:37;;;;;;;;;;;;;;;4.74;100.00;100547.72;5035305;28;19949;-78
2023/04/07 00:49:02;;;;;;;;;;;;;;;4.78;100.00;100548.41;5035739;28;19924;-76
2023/04/07 00:51:28;;;;;;;;;;;;;;;4.70;100.00;100542.16;5001762;28;19913;-76
2023/04/07 00:53:53;;;;;;;;;;;;;;;4.72;100.00;100550.19;5017620;28;19924;-77
2023/04/07 00:56:19;;;;;;;;;;;;;;;4.76;100.00;100536.75;5035370;28;19913;-76
2023/04/07 00:58:44;;;;;;;;;;;;;;;4.78;100.00;100543.56;5035339;28;19956;-77
2023/04/07 01:01:09;;;;;;;;;;;;;;;4.78;100.00;100535.06;5035218;28;20109;-78
2023/04/07 01:03:37;;;;;;;;;;;;;;;4.81;100.00;100536.97;5035199;28;19928;-76
2023/04/07 01:06:02;;;;;;;;;;;;;;;4.79;100.00;100541.53;5035457;28;20398;-77
2023/04/07 01:08:36;;;;;;;;;;;;;;;4.69;100.00;100534.13;5035068;28;19953;-77
2023/04/07 01:11:07;;;;;;;;;;;;;;;4.68;100.00;100535.34;5034908;28;19917;-78
2023/04/07 01:13:43;;;;;;;;;;;;;;;4.63;100.00;100521.75;5017364;28;19957;-76
2023/04/07 01:16:10;;;;;;;;;;;;;;;4.63;100.00;100531.03;5035244;28;19917;-76
2023/04/07 01:18:35;;;;;;;;;;;;;;;4.54;100.00;100530.09;5017152;28;19920;-76
2023/04/07 01:21:03;;;;;;;;;;;;;;;4.44;100.00;100523.47;5034823;28;19913;-77
2023/04/07 01:23:46;;;;;;;;;;;;;;;4.38;100.00;100519.59;5034901;28;19919;-77
2023/04/07 01:26:14;;;;;;;;;;;;;;;4.33;100.00;100517.31;5034912;28;19921;-77
2023/04/07 01:28:40;;;;;;;;;;;;;;;4.32;100.00;100512.88;5035064;28;19913;-76
2023/04/07 01:31:05;;;;;;;;;;;;;;;4.35;100.00;100532.63;5057654;28;20389;-76
2023/04/07 01:33:31;;;;;;;;;;;;;;;4.40;100.00;100517.13;5055497;28;19970;-77
2023/04/07 01:35:57;;;;;;;;;;;;;;;4.46;100.00;100532.34;5054527;28;19912;-76
2023/04/07 01:38:22;;;;;;;;;;;;;;;4.49;100.00;100520.13;5054428;28;19912;-77
2023/04/07 01:40:47;;;;;;;;;;;;;;;4.52;100.00;100524.88;5054281;28;19913;-77
2023/04/07 01:43:12;;;;;;;;;;;;;;;4.54;100.00;100518.78;5072108;28;19921;-76
2023/04/07 01:45:38;;;;;;;;;;;;;;;4.50;100.00;100518.88;5072454;28;20361;-77
2023/04/07 01:48:07;;;;;;;;;;;;;;;4.53;100.00;100517.19;5053649;28;19924;-78
2023/04/07 01:50:32;;;;;;;;;;;;;;;4.56;100.00;100519.13;5073960;28;19916;-76
2023/04/07 01:52:57;;;;;;;;;;;;;;;4.48;100.00;100516.50;5072038;28;20080;-76
2023/04/07 01:55:22;;;;;;;;;;;;;;;4.42;100.00;100508.97;5054065;28;19924;-78
2023/04/07 01:57:48;;;;;;;;;;;;;;;4.37;100.00;100507.50;5054115;28;19959;-77
2023/04/07 02:00:13;;;;;;;;;;;;;;;4.27;100.00;100507.78;5071881;28;19913;-77
2023/04/07 02:02:40;;;;;;;;;;;;;;;4.28;100.00;100510.16;5072312;28;19920;-77
2023/04/07 02:05:06;;;;;;;;;;;;;;;4.36;100.00;100514.41;5054134;28;19962;-76
2023/04/07 02:07:35;;;;;;;;;;;;;;;4.39;100.00;100504.22;5073547;28;19916;-77
2023/04/07 02:10:01;;;;;;;;;;;;;;;4.38;100.00;100505.47;5056326;28;19912;-77
2023/04/07 02:12:27;;;;;;;;;;;;;;;4.31;100.00;100503.63;5055875;28;19913;-76
2023/04/07 02:14:53;;;;;;;;;;;;;;;4.22;100.00;100506.28;5055897;28;19923;-77
2023/04/07 02:17:19;;;;;;;;;;;;;;;4.11;100.00;100505.00;5073984;28;19912;-76
2023/04/07 02:19:44;;;;;;;;;;;;;;;4.08;100.00;100501.00;5073916;28;20293;-76
2023/04/07 02:22:09;;;;;;;;;;;;;;;4.11;100.00;100497.31;5055883;28;19963;-76
2023/04/07 02:24:34;;;;;;;;;;;;;;;4.08;100.00;100492.50;5073676;28;19912;-77
2023/04/07 02:27:00;;;;;;;;;;;;;;;3.94;100.00;100498.53;5073616;28;19920;-77
2023/04/07 02:29:26;;;;;;;;;;;;;;;3.85;100.00;100501.97;5073870;28;19993;-77
2023/04/07 02:31:51;;;;;;;;;;;;;;;3.78;100.00;100496.47;5055666;28;19951;-77
2023/04/07 02:34:16;;;;;;;;;;;;;;;3.81;100.00;100498.44;5073696;28;19917;-76
2023/04/07 02:36:42;;;;;;;;;;;;;;;3.81;100.00;100501.28;5073815;28;19951;-75
2023/04/07 02:39:07;;;;;;;;;;;;;;;3.91;100.00;100500.25;5073788;28;19913;-76
2023/04/07 02:41:33;;;;;;;;;;;;;;;3.93;100.00;100503.41;5073917;28;19917;-77
2023/04/07 02:43:58;;;;;;;;;;;;;;;4.00;100.00;100505.25;5073700;28;19970;-77
2023/04/07 02:46:23;;;;;;;;;;;;;;;4.04;100.00;100498.28;5073590;28;19982;-76
2023/04/07 02:48:49;;;;;;;;;;;;;;;3.98;100.00;100493.59;5056581;28;19913;-77
2023/04/07 02:51:14;;;;;;;;;;;;;;;3.97;100.00;100489.19;5074371;28;20289;-76
2023/04/07 02:53:39;;;;;;;;;;;;;;;3.83;100.00;100489.50;5074122;28;19916;-77
2023/04/07 02:56:05;;;;;;;;;;;;;;;3.82;100.00;100485.88;5074471;28;19941;-78
2023/04/07 02:58:30;;;;;;;;;;;;;;;3.85;100.00;100482.19;5074125;28;20362;-76
2023/04/07 03:00:55;;;;;;;;;;;;;;;3.92;100.00;100478.41;5078269;28;19912;-76
2023/04/07 03:03:21;;;;;;;;;;;;;;;3.73;100.00;100488.53;5078969;28;19912;-76
2023/04/07 03:05:46;;;;;;;;;;;;;;;3.76;100.00;100484.84;5077835;28;20250;-77
2023/04/07 03:08:11;;;;;;;;;;;;;;;3.77;100.00;100480.00;5077172;28;19920;-76
2023/04/07 03:10:36;;;;;;;;;;;;;;;3.68;100.00;100479.78;5077601;28;20443;-77
2023/04/07 03:13:02;;;;;;;;;;;;;;;3.75;100.00;100488.91;5077116;28;19919;-76
2023/04/07 03:15:27;;;;;;;;;;;;;;;3.83;100.00;100481.81;5059204;28;19920;-76
2023/04/07 03:17:52;;;;;;;;;;;;;;;3.91;100.00;100485.31;5077374;28;19916;-76
2023/04/07 03:20:18;;;;;;;;;;;;;;;3.98;100.00;100496.41;5059259;28;19912;-76
2023/04/07 03:22:43;;;;;;;;;;;;;;;3.99;100.00;100487.50;5076964;28;20367;-74
2023/04/07 03:25:09;;;;;;;;;;;;;;;3.95;100.00;100489.63;5076929;28;19957;-74
2023/04/07 03:27:34;;;;;;;;;;;;;;;3.98;100.00;100485.91;5076917;28;20023;-74
2023/04/07 03:29:59;;;;;;;;;;;;;;;4.03;100.00;100484.56;5077155;28;19919;-75
2023/04/07 03:32:25;;;;;;;;;;;;;;;4.05;100.00;100482.91;5076881;28;19920;-74
2023/04/07 03:34:50;;;;;;;;;;;;;;;4.02;100.00;100492.25;5076705;28;20254;-75
2023/04/07 03:37:15;;;;;;;;;;;;;;;4.04;100.00;100489.78;5076709;28;19998;-75
2023/04/07 03:39:41;;;;;;;;;;;;;;;4.04;100.00;100486.97;5076703;28;20277;-75
2023/04/07 03:42:06;;;;;;;;;;;;;;;4.07;100.00;100482.44;5077337;28;19913;-74
2023/04/07 03:44:31;;;;;;;;;;;;;;;4.09;100.00;100488.47;5055288;28;20347;-74
2023/04/07 03:46:57;;;;;;;;;;;;;;;4.07;100.00;100483.25;5056593;28;19916;-74
2023/04/07 03:49:22;;;;;;;;;;;;;;;4.02;100.00;100482.97;5060623;28;20378;-73
2023/04/07 03:51:48;;;;;;;;;;;;;;;3.96;100.00;100481.94;5060558;28;20008;-74
2023/04/07 03:54:13;;;;;;;;;;;;;;;3.99;100.00;100481.84;5060750;28;20769;-74
2023/04/07 03:56:39;;;;;;;;;;;;;;;4.05;100.00;100484.94;5059694;28;19913;-74
2023/04/07 03:59:04;;;;;;;;;;;;;;;4.08;100.00;100479.19;5059129;28;19920;-74
2023/04/07 04:01:30;;;;;;;;;;;;;;;4.07;100.00;100485.28;5058386;28;20384;-74
2023/04/07 04:03:55;;;;;;;;;;;;;;;4.06;100.00;100484.50;5056388;28;19954;-73
2023/04/07 04:06:21;;;;;;;;;;;;;;;4.00;100.00;100483.44;5056026;28;19913;-73
2023/04/07 04:08:46;;;;;;;;;;;;;;;3.97;100.00;100481.47;5038107;28;19999;-74
2023/04/07 04:11:11;;;;;;;;;;;;;;;3.98;100.00;100483.06;5054270;28;20278;-74
2023/04/07 04:13:36;;;;;;;;;;;;;;;4.03;100.00;100473.25;5056172;28;19966;-74
2023/04/07 04:16:02;;;;;;;;;;;;;;;4.06;100.00;100472.38;5054655;28;19913;-75
2023/04/07 04:18:27;;;;;;;;;;;;;;;4.02;100.00;100477.31;5055970;28;20396;-73
2023/04/07 04:20:52;;;;;;;;;;;;;;;4.00;100.00;100474.16;5055449;28;19978;-74
2023/04/07 04:23:18;;;;;;;;;;;;;;;3.98;100.00;100477.41;5055686;28;20386;-74
2023/04/07 04:25:43;;;;;;;;;;;;;;;3.92;100.00;100484.84;5055676;28;19913;-74
2023/04/07 04:28:08;;;;;;;;;;;;;;;3.94;100.00;100488.03;5055995;28;19940;-75
2023/04/07 04:30:34;;;;;;;;;;;;;;;3.98;100.00;100485.91;5054761;28;20354;-75
2023/04/07 04:32:59;;;;;;;;;;;;;;;3.94;100.00;100488.03;5056130;28;19941;-74
2023/04/07 04:35:25;;;;;;;;;;;;;;;3.80;100.00;100481.91;5055998;28;20023;-73
2023/04/07 04:37:50;;;;;;;;;;;;;;;3.73;100.00;100484.91;5054251;28;20015;-73
2023/04/07 04:40:15;;;;;;;;;;;;;;;3.77;100.00;100486.44;5054584;28;19920;-75
2023/04/07 04:42:41;;;;;;;;;;;;;;;3.72;100.00;100483.34;5055491;28;19921;-74
2023/04/07 04:45:06;;;;;;;;;;;;;;;3.73;100.00;100482.88;5074673;28;19920;-73
2023/04/07 04:47:31;;;;;;;;;;;;;;;3.76;100.00;100484.03;5075168;28;20028;-72
2023/04/07 04:49:57;;;;;;;;;;;;;;;3.82;100.00;100487.94;5075368;28;19920;-74
2023/04/07 04:52:22;;;;;;;;;;;;;;;3.93;100.00;100486.44;5075209;28;19956;-75
2023/04/07 04:54:47;;;;;;;;;;;;;;;3.99;100.00;100486.69;5075518;28;20328;-79
2023/04/07 04:57:12;;;;;;;;;;;;;;;4.04;100.00;100486.16;5040612;28;19917;-77
2023/04/07 04:59:38;;;;;;;;;;;;;;;4.10;100.00;100487.22;5075438;28;19935;-77
2023/04/07 05:02:04;;;;;;;;;;;;;;;4.10;100.00;100492.09;5075671;28;19943;-74
2023/04/07 05:04:29;;;;;;;;;;;;;;;4.12;100.00;100486.78;5075162;28;20284;-77
2023/04/07 05:06:55;;;;;;;;;;;;;;;4.10;100.00;100487.22;5074835;28;19922;-78
2023/04/07 05:09:23;;;;;;;;;;;;;;;4.13;100.00;100491.19;5074836;28;19912;-77
2023/04/07 05:11:48;;;;;;;;;;;;;;;4.19;100.00;100489.41;5074887;28;19913;-76
2023/04/07 05:14:22;;;;;;;;;;;;;;;4.19;100.00;100497.91;5081847;28;19917;-77
2023/04/07 05:16:48;;;;;;;;;;;;;;;4.14;100.00;100495.59;5075049;28;19932;-76
2023/04/07 05:19:14;;;;;;;;;;;;;;;4.14;100.00;100499.22;5055928;28;19916;-76
2023/04/07 05:21:43;;;;;;;;;;;;;;;4.13;100.00;100491.19;5073885;28;19912;-75
2023/04/07 05:24:08;;;;;;;;;;;;;;;4.15;100.00;100488.72;5072667;28;19920;-75
2023/04/07 05:26:34;;;;;;;;;;;;;;;4.07;100.00;100488.09;5073531;28;19924;-79
2023/04/07 05:29:26;;;;;;;;;;;;;;;4.11;100.00;100482.38;5074052;28;19936;-78
2023/04/07 05:31:54;;;;;;;;;;;;;;;4.15;100.00;100500.03;5055198;28;19956;-78
2023/04/07 05:34:20;;;;;;;;;;;;;;;4.22;100.00;100482.84;5055794;28;19913;-79
2023/04/07 05:36:46;;;;;;;;;;;;;;;4.21;100.00;100487.75;5051450;28;19912;-79
2023/04/07 05:39:11;;;;;;;;;;;;;;;4.28;100.00;100490.38;5074005;28;19912;-78
2023/04/07 05:41:36;;;;;;;;;;;;;;;4.33;100.00;100489.03;5055857;28;19919;-79
2023/04/07 05:44:02;;;;;;;;;;;;;;;4.29;100.00;100494.78;5072398;28;19925;-78
2023/04/07 05:46:28;;;;;;;;;;;;;;;4.22;100.00;100494.16;5072604;28;19928;-79
2023/04/07 05:48:53;;;;;;;;;;;;;;;4.24;100.00;100491.69;5072516;28;19995;-78
2023/04/07 05:51:18;;;;;;;;;;;;;;;4.27;100.00;100485.16;5072580;28;20266;-80
2023/04/07 05:53:44;;;;;;;;;;;;;;;4.30;100.00;100490.72;5072469;28;19912;-80
2023/04/07 05:56:09;;;;;;;;;;;;;;;4.32;100.00;100495.91;5072474;28;20322;-79
2023/04/07 05:58:34;;;;;;;;;;;;;;;4.30;100.00;100502.03;5073467;28;19947;-79
2023/04/07 06:01:00;;;;;;;;;;;;;;;4.29;100.00;100494.00;5074252;28;20349;-80
2023/04/07 06:03:25;;;;;;;;;;;;;;;4.29;100.00;100496.81;5075060;28;20285;-81
2023/04/07 06:05:51;;;;;;;;;;;;;;;4.17;100.00;100500.38;5058072;28;19939;-78
2023/04/07 06:08:16;;;;;;;;;;;;;;;4.18;100.00;100504.78;5063283;28;19917;-79
2023/04/07 06:10:43;;;;;;;;;;;;;;;4.25;100.00;100494.09;5035045;28;19913;-80
2023/04/07 06:13:08;;;;;;;;;;;;;;;4.29;100.00;100491.97;5054509;28;20373;-81
2023/04/07 06:15:33;;;;;;;;;;;;;;;4.36;100.00;100499.47;5036256;28;19917;-76
2023/04/07 06:17:59;;;;;;;;;;;;;;;4.44;100.00;100498.81;5015976;28;20329;-77
2023/04/07 06:20:26;;;;;;;;;;;;;;;4.33;100.00;100495.47;5033820;28;19913;-75
2023/04/07 06:22:52;;;;;;;;;;;;;;;4.22;100.00;100483.66;5016473;28;19967;-76
2023/04/07 06:25:17;;;;;;;;;;;;;;;4.29;100.00;100497.63;5035482;28;19913;-77
2023/04/07 06:27:42;;;;;;;;;;;;;;;4.41;100.00;100487.59;5053646;28;20305;-77
2023/04/07 06:30:08;;;;;;;;;;;;;;;4.54;100.00;100494.09;5054196;28;19924;-75
2023/04/07 06:32:33;;;;;;;;;;;;;;;4.60;100.00;100489.50;5035669;28;19928;-78
2023/04/07 06:34:59;;;;;;;;;;;;;;;4.60;100.00;100491.53;5036241;28;19912;-78
2023/04/07 06:37:24;;;;;;;;;;;;;;;4.68;100.00;100495.72;5021308;28;19913;-78
2023/04/07 06:39:50;;;;;;;;;;;;;;;4.69;100.00;100491.66;5056592;28;20362;-79
2023/04/07 06:42:15;;;;;;;;;;;;;;;4.76;100.00;100485.81;5055174;28;19913;-80
2023/04/07 06:44:40;;;;;;;;;;;;;;;4.73;100.00;100490.31;5056840;28;19921;-82
2023/04/07 06:47:06;;;;;;;;;;;;;;;4.74;100.00;100497.56;5053416;28;20274;-79
2023/04/07 06:49:31;;;;;;;;;;;;;;;4.81;100.00;100483.19;5031442;28;20003;-76
2023/04/07 06:51:56;;;;;;;;;;;;;;;4.65;100.00;100483.28;5036325;28;19974;-77
2023/04/07 06:54:22;;;;;;;;;;;;;;;4.55;100.00;100475.88;5053645;28;19948;-76
2023/04/07 06:56:47;;;;;;;;;;;;;;;4.51;100.00;100478.03;5053702;28;20289;-75
2023/04/07 06:59:12;;;;;;;;;;;;;;;4.58;100.00;100479.84;5053641;28;19924;-76
2023/04/07 07:01:37;;;;;;;;;;;;;;;4.72;100.00;100476.59;5053659;28;20302;-77
2023/04/07 07:04:04;;;;;;;;;;;;;;;4.88;100.00;100482.19;5036833;28;19913;-80
2023/04/07 07:06:30;;;;;;;;;;;;;;;5.00;100.00;100475.00;5054282;28;19913;-79
2023/04/07 07:08:55;;;;;;;;;;;;;;;5.12;100.00;100475.00;5036392;28;20281;-80
2023/04/07 07:11:21;;;;;;;;;;;;;;;5.01;100.00;100466.03;5053327;28;20376;-77
2023/04/07 07:13:46;;;;;;;;;;;;;;;5.03;100.00;100460.72;5053739;28;19913;-79
2023/04/07 07:16:12;;;;;;;;;;;;;;;4.96;100.00;100458.09;5053219;28;19928;-79
2023/04/07 07:18:37;;;;;;;;;;;;;;;4.90;100.00;100459.91;5053342;28;20266;-80
2023/04/07 07:21:02;;;;;;;;;;;;;;;4.87;100.00;100463.63;5053455;28;19936;-79
2023/04/07 07:23:28;;;;;;;;;;;;;;;4.97;100.00;100475.88;5053301;28;19948;-79
2023/04/07 07:25:53;;;;;;;;;;;;;;;5.02;100.00;100480.97;5053411;28;19917;-79
2023/04/07 07:28:20;;;;;;;;;;;;;;;5.05;100.00;100472.41;5053377;28;19963;-79
2023/04/07 07:30:45;;;;;;;;;;;;;;;4.91;100.00;100481.28;5053645;28;19913;-80
2023/04/07 07:33:10;;;;;;;;;;;;;;;4.91;100.00;100476.44;5053962;28;20016;-81
2023/04/07 07:35:36;;;;;;;;;;;;;;;4.88;100.00;100479.38;5054388;28;20320;-79
2023/04/07 07:38:02;;;;;;;;;;;;;;;4.92;100.00;100483.69;5054687;28;19938;-79
2023/04/07 07:40:27;;;;;;;;;;;;;;;4.96;100.00;100486.41;5053604;28;20019;-79
2023/04/07 07:42:52;;;;;;;;;;;;;;;5.06;100.00;100490.16;5053491;28;20370;-79
2023/04/07 07:45:18;;;;;;;;;;;;;;;5.17;100.00;100501.97;5053398;28;19940;-78
2023/04/07 07:47:44;;;;;;;;;;;;;;;5.13;100.00;100495.63;5055504;28;19927;-79
2023/04/07 07:50:09;;;;;;;;;;;;;;;5.12;100.00;100499.69;5056915;28;19919;-80
2023/04/07 07:52:34;;;;;;;;;;;;;;;5.10;100.00;100503.00;5039032;28;19952;-80
2023/04/07 07:55:00;;;;;;;;;;;;;;;5.10;100.00;100513.53;5038619;28;19919;-80
2023/04/07 07:57:25;;;;;;;;;;;;;;;5.12;100.00;100513.84;5057567;28;19966;-78
2023/04/07 07:59:50;;;;;;;;;;;;;;;5.17;100.00;100510.47;5070367;28;19992;-80
2023/04/07 08:02:16;;;;;;;;;;;;;;;5.20;100.00;100513.19;5077109;28;19913;-80
2023/04/07 08:04:41;;;;;;;;;;;;;;;5.25;100.00;100509.03;5077229;28;19912;-79
2023/04/07 08:07:06;;;;;;;;;;;;;;;5.31;100.00;100516.50;5071903;28;19921;-77
2023/04/07 08:09:31;;;;;;;;;;;;;;;5.24;100.00;100518.75;5072191;28;19912;-76
2023/04/07 08:11:57;;;;;;;;;;;;;;;5.28;100.00;100508.91;5074536;28;19913;-76
2023/04/07 08:14:22;;;;;;;;;;;;;;;5.29;100.00;100504.81;5071707;28;19913;-80
2023/04/07 08:16:48;;;;;;;;;;;;;;;5.32;100.00;100509.59;5047954;28;19966;-77
2023/04/07 08:19:13;;;;;;;;;;;;;;;5.38;100.00;100502.13;5064344;28;19913;-77
2023/04/07 08:21:38;;;;;;;;;;;;;;;5.36;100.00;100498.13;5062640;28;19982;-77
2023/04/07 08:24:04;;;;;;;;;;;;;;;5.27;100.00;100501.63;5061260;28;19925;-79
2023/04/07 08:26:30;;;;;;;;;;;;;;;5.24;100.00;100501.75;5061693;28;20319;-77
2023/04/07 08:28:55;;;;;;;;;;;;;;;5.40;100.00;100498.03;5062278;28;20012;-79
2023/04/07 08:31:20;;;;;;;;;;;;;;;5.60;100.00;100505.03;5045010;28;20440;-76
2023/04/07 08:33:46;;;;;;;;;;;;;;;5.84;100.00;100502.66;5060383;28;20046;-77
2023/04/07 08:36:11;;;;;;;;;;;;;;;6.09;100.00;100496.16;5042561;28;19974;-79
2023/04/07 08:38:36;;;;;;;;;;;;;;;6.33;100.00;100507.94;5062056;28;19931;-80
2023/04/07 08:41:03;;;;;;;;;;;;;;;6.45;100.00;100504.25;5061571;28;19913;-79
2023/04/07 08:43:28;;;;;;;;;;;;;;;6.46;100.00;100503.78;5041034;28;20377;-76
2023/04/07 08:45:54;;;;;;;;;;;;;;;6.79;100.00;100498.53;5041793;28;20373;-78
2023/04/07 08:48:20;;;;;;;;;;;;;;;6.98;100.00;100496.59;5040670;28;20282;-79
2023/04/07 08:50:45;;;;;;;;;;;;;;;7.25;100.00;100493.13;5039348;28;19921;-79
2023/04/07 08:53:12;;;;;;;;;;;;;;;7.42;100.00;100500.19;5035982;28;19913;-79
2023/04/07 08:55:37;;;;;;;;;;;;;;;7.53;100.00;100503.38;5020039;28;19940;-79
2023/04/07 08:58:02;;;;;;;;;;;;;;;7.62;100.00;100505.50;5039973;28;19913;-79
2023/04/07 09:00:28;;;;;;;;;;;;;;;7.57;100.00;100497.56;5041210;28;20099;-79
2023/04/07 09:02:53;;;;;;;;;;;;;;;7.59;100.00;100500.72;5040838;28;19920;-79
2023/04/07 09:05:20;;;;;;;;;;;;;;;7.44;100.00;100495.59;5039277;28;20366;-78
2023/04/07 09:07:45;;;;;;;;;;;;;;;7.10;100.00;100493.69;5036794;28;19928;-78
2023/04/07 09:10:10;;;;;;;;;;;;;;;6.84;100.00;100488.59;5036178;28;20077;-79
2023/04/07 09:12:36;;;;;;;;;;;;;;;6.81;100.00;100490.34;5035668;28;19920;-78
2023/04/07 09:15:01;;;;;;;;;;;;;;;6.94;100.00;100488.22;5038710;28;19967;-79
2023/04/07 09:17:27;;;;;;;;;;;;;;;6.97;100.00;100492.19;5040086;28;19913;-79
2023/04/07 09:19:54;;;;;;;;;;;;;;;6.92;100.00;100495.63;5041244;28;20436;-77
2023/04/07 09:22:41;;;;;;;;;;;;;;;6.93;100.00;100494.38;5039451;28;20366;-79
2023/04/07 09:25:12;;;;;;;;;;;;;;;6.74;100.00;100486.97;5040393;28;19936;-78
2023/04/07 09:27:38;;;;;;;;;;;;;;;6.77;100.00;100492.53;5040531;28;19921;-80
2023/04/07 09:30:10;;;;;;;;;;;;;;;6.95;100.00;100489.00;5036427;28;19921;-78
2023/04/07 09:32:37;;;;;;;;;;;;;;;7.30;100.00;100493.31;5036625;28;19920;-78
2023/04/07 09:35:02;;;;;;;;;;;;;;;7.67;100.00;100490.66;5036485;28;20366;-80
2023/04/07 09:37:28;;;;;;;;;;;;;;;7.67;100.00;100502.03;5037217;28;19971;-79
2023/04/07 09:39:53;;;;;;;;;;;;;;;7.63;100.00;100496.47;5037538;28;19967;-78
2023/04/07 09:42:19;;;;;;;;;;;;;;;7.53;100.00;100498.47;5036321;28;20058;-79
2023/04/07 09:44:44;;;;;;;;;;;;;;;7.34;100.00;100502.50;5031713;28;19972;-79
2023/04/07 09:47:10;;;;;;;;;;;;;;;7.26;100.00;100492.69;5033783;28;19917;-81
2023/04/07 09:49:47;;;;;;;;;;;;;;;7.19;100.00;100492.16;5034022;28;19913;-82
2023/04/07 09:52:12;;;;;;;;;;;;;;;6.92;100.00;100484.28;5035355;28;19917;-76
2023/04/07 09:54:41;;;;;;;;;;;;;;;6.71;100.00;100493.56;5035704;28;20280;-81
2023/04/07 09:57:07;;;;;;;;;;;;;;;6.61;100.00;100490.66;5035249;28;19914;-78
2023/04/07 09:59:35;;;;;;;;;;;;;;;6.58;100.00;100488.72;5035205;28;19920;-80
2023/04/07 10:02:01;;;;;;;;;;;;;;;6.84;100.00;100488.59;5034730;28;19924;-80
2023/04/07 10:04:26;;;;;;;;;;;;;;;6.95;100.00;100489.00;5034075;28;19914;-81
2023/04/07 10:06:55;;;;;;;;;;;;;;;6.68;100.00;100478.25;5029084;28;19917;-80
2023/04/07 10:09:24;;;;;;;;;;;;;;;6.61;100.00;100487.81;5033867;28;19913;-78
2023/04/07 10:11:50;;;;;;;;;;;;;;;6.68;100.00;100487.56;5032613;28;20318;-79
2023/04/07 10:14:15;;;;;;;;;;;;;;;6.92;100.00;100482.22;5032968;28;20420;-79
2023/04/07 10:16:41;;;;;;;;;;;;;;;6.85;100.00;100473.97;5033128;28;19920;-79
2023/04/07 10:19:06;;;;;;;;;;;;;;;6.93;100.00;100480.94;5033893;28;19920;-76
2023/04/07 10:21:33;;;;;;;;;;;;;;;7.19;100.00;100481.56;5033213;28;19968;-77
2023/04/07 10:23:59;;;;;;;;;;;;;;;7.27;100.00;100488.59;5032757;28;20302;-80
2023/04/07 10:26:25;;;;;;;;;;;;;;;7.26;100.00;100486.19;5032703;28;20386;-79
2023/04/07 10:28:52;;;;;;;;;;;;;;;7.07;100.00;100483.25;5034146;28;19924;-77
2023/04/07 10:31:18;;;;;;;;;;;;;;;7.13;100.00;100471.31;5032773;28;19913;-75
2023/04/07 10:33:44;;;;;;;;;;;;;;;6.85;100.00;100482.47;5032399;28;19939;-76
2023/04/07 10:36:10;;;;;;;;;;;;;;;6.90;100.00;100472.56;5032713;28;19913;-78
2023/04/07 10:38:35;;;;;;;;;;;;;;;6.86;100.00;100478.38;5033990;28;20015;-76
2023/04/07 10:41:07;;;;;;;;;;;;;;;6.75;100.00;100475.16;5034208;28;19967;-77
2023/04/07 10:43:36;;;;;;;;;;;;;;;6.62;100.00;100472.38;5032782;28;19921;-77
2023/04/07 10:46:02;;;;;;;;;;;;;;;6.43;100.00;100473.50;5031963;28;20370;-77
2023/04/07 10:48:27;;;;;;;;;;;;;;;6.64;100.00;100474.75;5012737;28;20013;-77
2023/04/07 10:51:02;;;;;;;;;;;;;;;6.80;100.00;100477.38;5013981;28;19921;-77
2023/04/07 10:53:27;;;;;;;;;;;;;;;6.95;100.00;100486.97;5014652;28;20260;-70
2023/04/07 10:55:53;;;;;;;;;;;;;;;6.87;100.00;100477.13;5031577;28;19913;-71
2023/04/07 10:58:25;;;;;;;;;;;;;;;6.79;100.00;100477.84;5033635;28;19921;-72
2023/04/07 11:01:03;;;;;;;;;;;;;;;6.91;100.00;100486.31;5033430;28;19920;-68
2023/04/07 11:03:32;;;;;;;;;;;;;;;6.94;100.00;100490.25;5032153;28;20362;-69
2023/04/07 11:06:11;;;;;;;;;;;;;;;7.03;100.00;100487.47;5035849;28;19936;-76
2023/04/07 11:08:37;;;;;;;;;;;;;;;7.05;100.00;100487.81;5028178;28;19932;-74
2023/04/07 11:11:13;;;;;;;;;;;;;;;7.18;100.00;100484.88;5033696;28;19913;-75
2023/04/07 11:13:43;;;;;;;;;;;;;;;7.10;100.00;100490.06;5038731;28;19985;-76
2023/04/07 11:16:10;;;;;;;;;;;;;;;7.19;100.00;100490.09;5032034;28;20007;-74
2023/04/07 11:18:36;;;;;;;;;;;;;;;7.33;100.00;100492.38;5032057;28;20370;-76
2023/04/07 11:21:02;;;;;;;;;;;;;;;7.45;100.00;100487.88;5032297;28;19917;-75
2023/04/07 11:23:28;;;;;;;;;;;;;;;7.49;100.00;100495.00;5035510;28;20052;-79
2023/04/07 11:26:10;;;;;;;;;;;;;;;7.47;100.00;100471.91;5035300;28;20279;-79
2023/04/07 11:28:46;;;;;;;;;;;;;;;7.62;100.00;100485.59;5036697;28;19917;-77
2023/04/07 11:31:12;;;;;;;;;;;;;;;7.53;100.00;100494.84;5036427;28;19913;-78
2023/04/07 11:33:38;;;;;;;;;;;;;;;7.45;100.00;100485.81;5037356;28;19913;-76
2023/04/07 11:36:05;;;;;;;;;;;;;;;7.38;100.00;100490.97;5037260;28;19917;-80
2023/04/07 11:38:37;;;;;;;;;;;;;;;7.31;100.00;100489.22;5028267;28;19919;-73
2023/04/07 11:41:10;;;;;;;;;;;;;;;7.33;100.00;100481.00;5033701;28;19928;-80
2023/04/07 11:43:36;;;;;;;;;;;;;;;7.22;100.00;100482.72;5043831;28;19920;-76
2023/04/07 11:46:12;;;;;;;;;;;;;;;7.11;100.00;100483.13;5057853;28;19924;-79
2023/04/07 11:48:39;;;;;;;;;;;;;;;6.92;100.00;100470.84;5076113;28;20011;-77
2023/04/07 11:51:06;;;;;;;;;;;;;;;7.00;100.00;100477.03;5045686;28;19969;-77
2023/04/07 11:53:40;;;;;;;;;;;;;;;6.95;100.00;100477.66;5029540;28;20275;-77
2023/04/07 11:56:11;;;;;;;;;;;;;;;6.89;100.00;100473.81;5075794;28;19916;-77
2023/04/07 11:58:37;;;;;;;;;;;;;;;6.72;100.00;100472.44;5076507;28;19954;-73
2023/04/07 12:01:07;;;;;;;;;;;;;;;6.59;100.00;100466.81;5068853;28;19924;-78
2023/04/07 12:03:45;;;;;;;;;;;;;;;6.56;100.00;100473.44;5056003;28;20004;-76
2023/04/07 12:06:10;;;;;;;;;;;;;;;6.47;100.00;100468.47;5056383;28;19996;-77
2023/04/07 12:08:39;;;;;;;;;;;;;;;6.61;100.00;100467.16;5038527;28;20008;-77
2023/04/07 12:11:06;;;;;;;;;;;;;;;6.75;100.00;100466.63;5038039;28;19970;-78
2023/04/07 12:13:32;;;;;;;;;;;;;;;6.65;100.00;100465.78;5039739;28;19917;-77
2023/04/07 12:15:59;;;;;;;;;;;;;;;6.73;100.00;100472.00;5054793;28;20254;-77
2023/04/07 12:18:25;;;;;;;;;;;;;;;6.81;100.00;100463.97;5036813;28;20012;-77
2023/04/07 12:20:51;;;;;;;;;;;;;;;6.86;100.00;100460.56;5037220;28;19963;-74
2023/04/07 12:23:22;;;;;;;;;;;;;;;6.89;100.00;100460.41;5054953;28;19912;-76
2023/04/07 12:25:48;;;;;;;;;;;;;;;6.79;100.00;100460.81;5049812;28;19954;-77
2023/04/07 12:28:16;;;;;;;;;;;;;;;6.78;100.00;100462.84;5042108;28;20397;-80
2023/04/07 12:30:42;;;;;;;;;;;;;;;6.70;100.00;100464.38;5041118;28;19941;-79